Time;durP1;ratioP1;P1;durP2;ratioP2;P2;SDS_P1;SDS_P2;PMS_P1;PMS_P2;Temp;Humidity;BMP_temperature;BMP_pressure;BME280_temperature;BME280_humidity;BME280_pressure;Samples;Min_cycle;Max_cycle;Signal;HPM_P1;HPM_P2
2022/04/26 03:37:52;;;;;;;23.60;4.47;;;10.70;91.90;;;;;;5120689;27;21020;-69
2022/04/26 03:40:18;;;;;;;7.45;3.45;;;10.60;91.80;;;;;;5134011;27;20371;-68
2022/04/26 03:42:44;;;;;;;15.65;4.25;;;10.70;91.90;;;;;;5131973;27;20034;-68
2022/04/26 03:45:09;;;;;;;12.90;3.88;;;10.70;91.90;;;;;;5134196;27;20470;-69
2022/04/26 03:47:35;;;;;;;17.35;3.83;;;10.70;91.90;;;;;;5127882;27;20051;-69
2022/04/26 03:50:01;;;;;;;13.65;3.40;;;10.70;91.90;;;;;;5134394;27;20023;-70
2022/04/26 03:52:26;;;;;;;16.73;4.80;;;10.70;91.90;;;;;;5134121;27;20027;-69
2022/04/26 03:54:52;;;;;;;12.30;3.70;;;10.70;91.90;;;;;;5133185;27;20505;-68
2022/04/26 03:57:17;;;;;;;15.48;3.67;;;10.70;91.90;;;;;;5134352;27;20031;-68
2022/04/26 03:59:43;;;;;;;6.68;3.42;;;10.70;91.90;;;;;;5133297;27;20035;-67
2022/04/26 04:02:09;;;;;;;11.45;3.40;;;10.70;91.90;;;;;;5120504;27;20024;-68
2022/04/26 04:04:35;;;;;;;10.88;3.75;;;10.70;91.90;;;;;;5134267;27;20144;-67
2022/04/26 04:07:00;;;;;;;11.52;3.05;;;10.70;91.90;;;;;;5132635;27;20031;-67
2022/04/26 04:09:26;;;;;;;16.10;3.40;;;10.70;91.90;;;;;;5132036;27;20027;-66
2022/04/26 04:11:52;;;;;;;15.00;3.13;;;10.80;91.90;;;;;;5132615;27;20485;-66
2022/04/26 04:14:18;;;;;;;11.13;3.17;;;10.70;91.90;;;;;;5132777;27;20050;-67
2022/04/26 04:16:43;;;;;;;15.13;3.40;;;10.80;91.90;;;;;;5131932;27;20011;-67
2022/04/26 04:19:18;;;;;;;14.75;3.35;;;10.70;91.90;;;;;;5132365;27;20417;-67
2022/04/26 04:21:45;;;;;;;13.00;3.17;;;10.80;91.90;;;;;;5130027;27;20030;-67
2022/04/26 04:24:15;;;;;;;16.58;3.33;;;10.80;91.90;;;;;;5132481;27;20030;-67
2022/04/26 04:26:42;;;;;;;9.57;3.15;;;10.80;91.90;;;;;;5132264;27;20016;-66
2022/04/26 04:29:08;;;;;;;13.10;2.92;;;10.80;91.80;;;;;;5133326;27;20031;-67
2022/04/26 04:31:34;;;;;;;13.85;3.47;;;10.80;91.80;;;;;;5133588;27;20106;-66
2022/04/26 04:34:02;;;;;;;12.55;2.85;;;10.80;91.70;;;;;;5133443;27;20545;-67
2022/04/26 04:36:28;;;;;;;17.50;3.72;;;10.70;91.70;;;;;;5132435;27;20553;-67
2022/04/26 04:38:57;;;;;;;13.45;3.60;;;10.70;91.70;;;;;;5133210;27;20038;-67
2022/04/26 04:41:23;;;;;;;8.52;2.97;;;10.70;91.70;;;;;;5133675;27;20031;-66
2022/04/26 04:43:50;;;;;;;15.25;3.88;;;10.70;91.70;;;;;;5129705;27;20084;-66
2022/04/26 04:46:15;;;;;;;16.05;3.17;;;10.70;91.70;;;;;;5132903;27;20027;-66
2022/04/26 04:48:41;;;;;;;12.13;3.20;;;10.70;91.80;;;;;;5133533;27;20142;-66
2022/04/26 04:51:07;;;;;;;7.47;3.17;;;10.70;91.80;;;;;;5132036;27;20037;-67
2022/04/26 04:53:33;;;;;;;7.22;3.00;;;10.60;91.90;;;;;;5133315;27;20071;-67
2022/04/26 04:55:59;;;;;;;15.25;3.45;;;10.60;91.90;;;;;;5129188;27;20023;-67
2022/04/26 04:58:25;;;;;;;12.00;3.47;;;10.70;91.90;;;;;;5123711;27;20043;-67
2022/04/26 05:00:51;;;;;;;8.77;3.33;;;10.70;91.90;;;;;;5131616;27;20527;-67
2022/04/26 05:03:17;;;;;;;11.77;3.10;;;10.70;91.90;;;;;;5133201;27;20125;-67
2022/04/26 05:05:43;;;;;;;11.50;2.45;;;10.70;91.90;;;;;;5131844;27;20110;-67
2022/04/26 05:08:10;;;;;;;11.38;3.00;;;10.70;91.90;;;;;;5133114;27;20497;-67
2022/04/26 05:10:36;;;;;;;10.73;2.67;;;10.70;91.80;;;;;;5132665;27;20035;-67
2022/04/26 05:13:02;;;;;;;14.70;3.00;;;10.70;91.80;;;;;;5132550;27;20031;-67
2022/04/26 05:15:28;;;;;;;11.00;3.47;;;10.70;91.80;;;;;;5132560;27;20047;-67
2022/04/26 05:17:54;;;;;;;8.88;2.88;;;10.70;91.80;;;;;;5131913;27;20039;-67
2022/04/26 05:20:19;;;;;;;12.98;2.63;;;10.70;92.10;;;;;;5126760;27;20084;-67
2022/04/26 05:25:33;;;;;;;22.38;2.53;;;10.60;91.80;;;;;;5131908;27;20088;-67
2022/04/26 05:28:00;;;;;;;12.32;2.97;;;10.60;91.80;;;;;;5132344;27;20047;-67
2022/04/26 05:30:25;;;;;;;12.48;3.35;;;10.70;91.80;;;;;;5132742;27;20023;-67
2022/04/26 05:32:51;;;;;;;9.65;3.03;;;10.70;91.90;;;;;;5131521;27;20103;-67
2022/04/26 05:35:17;;;;;;;10.50;2.72;;;10.70;91.90;;;;;;5132459;27;20042;-67
2022/04/26 05:37:43;;;;;;;11.68;2.45;;;10.70;91.90;;;;;;5132391;27;20046;-67
2022/04/26 05:40:09;;;;;;;10.10;2.58;;;10.70;91.90;;;;;;5132067;27;20394;-67
2022/04/26 05:42:38;;;;;;;8.48;2.50;;;10.70;91.80;;;;;;5130145;27;20019;-67
2022/04/26 05:45:04;;;;;;;12.75;2.88;;;10.70;91.70;;;;;;5117652;27;20116;-67
2022/04/26 05:47:29;;;;;;;5.80;2.30;;;10.70;91.70;;;;;;5125720;27;20055;-67
2022/04/26 05:49:56;;;;;;;8.77;2.72;;;10.80;91.60;;;;;;5132297;27;20026;-71
2022/04/26 05:52:24;;;;;;;11.10;2.50;;;10.70;91.60;;;;;;5131342;27;20118;-68
2022/04/26 05:54:53;;;;;;;9.88;3.45;;;10.70;91.50;;;;;;5127752;27;20050;-68
2022/04/26 05:57:19;;;;;;;7.63;2.63;;;10.70;91.60;;;;;;5130613;27;20031;-69
2022/04/26 05:59:44;;;;;;;8.63;2.75;;;10.70;91.50;;;;;;5130412;27;20042;-69
2022/04/26 06:02:11;;;;;;;7.38;3.08;;;10.70;91.60;;;;;;5129522;27;20023;-69
2022/04/26 06:04:38;;;;;;;11.50;3.72;;;10.70;91.70;;;;;;5128824;27;20031;-69
2022/04/26 06:07:04;;;;;;;17.40;3.55;;;10.70;91.70;;;;;;5127770;27;20035;-68
2022/04/26 06:09:30;;;;;;;12.57;2.50;;;10.70;91.80;;;;;;5128458;27;20027;-69
2022/04/26 06:11:57;;;;;;;7.32;2.97;;;10.70;91.90;;;;;;5128337;27;20033;-69
2022/04/26 06:14:23;;;;;;;8.77;2.40;;;10.70;91.90;;;;;;5128445;28;20127;-68
2022/04/26 06:16:49;;;;;;;5.97;2.55;;;10.70;91.90;;;;;;5128934;28;20105;-68
2022/04/26 06:19:14;;;;;;;7.30;2.10;;;10.70;91.90;;;;;;5130278;28;20080;-68
2022/04/26 06:21:40;;;;;;;9.73;2.38;;;10.70;91.80;;;;;;5129537;28;20069;-68
2022/04/26 06:24:06;;;;;;;7.85;1.70;;;10.70;91.80;;;;;;5132074;27;20031;-69
2022/04/26 06:26:31;;;;;;;13.15;2.53;;;10.70;91.70;;;;;;5132818;27;20042;-69
2022/04/26 06:28:57;;;;;;;14.80;2.90;;;10.70;91.80;;;;;;5132269;27;20043;-67
2022/04/26 06:31:23;;;;;;;8.63;3.13;;;10.70;91.80;;;;;;5133134;27;20035;-68
2022/04/26 06:33:48;;;;;;;10.23;2.30;;;10.70;91.80;;;;;;5132897;27;20526;-69
2022/04/26 06:36:14;;;;;;;5.72;1.88;;;10.70;91.80;;;;;;5131777;27;20466;-69
2022/04/26 06:38:40;;;;;;;6.78;2.38;;;10.70;91.70;;;;;;5114074;27;20039;-68
2022/04/26 06:41:06;;;;;;;9.63;2.22;;;10.70;91.70;;;;;;5133963;27;20076;-67
2022/04/26 06:43:33;;;;;;;10.98;2.92;;;10.70;91.90;;;;;;5127783;27;20367;-67
2022/04/26 06:46:00;;;;;;;9.02;2.72;;;10.80;91.90;;;;;;5133249;27;20039;-67
2022/04/26 06:48:26;;;;;;;14.48;3.05;;;10.80;92.00;;;;;;5133987;27;20164;-67
2022/04/26 06:50:55;;;;;;;11.70;2.67;;;10.80;92.00;;;;;;5130444;27;20039;-67
2022/04/26 06:53:21;;;;;;;11.38;2.25;;;10.80;92.00;;;;;;5133906;27;20031;-67
2022/04/26 06:55:46;;;;;;;3.85;2.20;;;10.80;92.00;;;;;;5132147;27;20039;-67
2022/04/26 06:58:12;;;;;;;11.07;2.85;;;10.90;92.00;;;;;;5129706;27;20042;-67
2022/04/26 07:00:38;;;;;;;5.60;1.83;;;10.90;91.90;;;;;;5133343;27;20072;-67
2022/04/26 07:03:04;;;;;;;7.50;2.03;;;10.90;91.90;;;;;;5133862;27;20033;-67
2022/04/26 07:05:30;;;;;;;8.20;2.25;;;11.00;91.80;;;;;;5132928;27;20069;-68
2022/04/26 07:07:56;;;;;;;6.15;2.08;;;11.00;91.60;;;;;;5134060;27;20109;-67
2022/04/26 07:10:22;;;;;;;8.07;2.13;;;11.10;91.60;;;;;;5132772;27;20035;-67
2022/04/26 07:12:48;;;;;;;12.93;2.83;;;11.10;91.70;;;;;;5133537;27;20088;-68
2022/04/26 07:15:14;;;;;;;8.57;2.10;;;11.10;91.60;;;;;;5133484;27;20039;-67
2022/04/26 07:17:46;;;;;;;6.43;2.03;;;11.10;91.50;;;;;;5133096;27;20023;-67
2022/04/26 07:20:11;;;;;;;15.18;2.72;;;11.20;91.20;;;;;;5130629;27;20475;-67
2022/04/26 07:22:38;;;;;;;11.45;2.35;;;11.20;91.20;;;;;;5133584;27;20038;-67
2022/04/26 07:25:08;;;;;;;7.22;2.30;;;11.30;91.20;;;;;;5132799;27;20058;-67
2022/04/26 07:27:34;;;;;;;9.35;2.42;;;11.30;91.30;;;;;;5131031;27;20496;-68
2022/04/26 07:30:00;;;;;;;4.95;1.88;;;11.30;91.30;;;;;;5133250;27;20494;-67
2022/04/26 07:34:20;;;;;;;4.03;1.77;;;11.30;91.30;;;;;;5132844;27;20031;-67
2022/04/26 07:35:18;;;;;;;9.13;1.92;;;11.40;91.20;;;;;;5129674;27;20133;-68
2022/04/26 07:37:43;;;;;;;8.68;2.55;;;11.40;91.20;;;;;;5132467;27;20459;-68
2022/04/26 07:40:09;;;;;;;5.45;2.55;;;11.40;91.10;;;;;;5132338;27;20398;-68
2022/04/26 07:42:35;;;;;;;11.90;2.17;;;11.40;91.00;;;;;;5132405;27;20058;-67
2022/04/26 07:45:01;;;;;;;7.07;2.58;;;11.50;90.90;;;;;;5132309;27;20426;-67
2022/04/26 07:47:30;;;;;;;7.55;2.00;;;11.50;91.00;;;;;;5128181;27;20062;-67
2022/04/26 07:49:57;;;;;;;11.40;2.65;;;11.50;91.10;;;;;;5131686;27;20035;-67
2022/04/26 07:52:23;;;;;;;6.35;1.20;;;11.60;91.00;;;;;;5131536;27;20035;-69
2022/04/26 07:54:50;;;;;;;2.63;1.95;;;11.60;91.10;;;;;;5130623;27;20604;-67
2022/04/26 07:57:16;;;;;;;6.80;2.08;;;11.60;91.10;;;;;;5132895;27;20023;-67
2022/04/26 07:59:42;;;;;;;6.75;2.10;;;11.70;91.00;;;;;;5126229;27;20035;-67
2022/04/26 08:02:08;;;;;;;4.18;1.50;;;11.70;90.80;;;;;;5128604;27;20042;-67
2022/04/26 08:04:34;;;;;;;4.05;1.95;;;11.70;90.90;;;;;;5128787;27;20039;-67
2022/04/26 08:07:00;;;;;;;9.40;2.40;;;11.80;90.80;;;;;;5129079;27;20488;-67
2022/04/26 08:09:25;;;;;;;9.40;2.33;;;11.80;90.60;;;;;;5128898;27;20031;-67
2022/04/26 08:11:51;;;;;;;8.85;2.22;;;11.80;89.80;;;;;;5128981;27;20133;-67
2022/04/26 08:14:17;;;;;;;10.90;2.40;;;11.90;89.60;;;;;;5128341;27;20107;-67
2022/04/26 08:16:42;;;;;;;11.43;1.92;;;11.90;89.40;;;;;;5128773;27;20793;-67
2022/04/26 08:19:11;;;;;;;6.45;2.05;;;11.90;89.50;;;;;;5127747;27;20390;-66
2022/04/26 08:21:38;;;;;;;5.95;2.20;;;12.00;89.70;;;;;;5128040;27;20549;-67
2022/04/26 08:29:33;;;;;;;5.45;1.98;;;12.10;88.70;;;;;;5126376;27;20038;-67
2022/04/26 08:31:58;;;;;;;5.72;2.38;;;12.10;88.60;;;;;;5128990;27;20019;-67
2022/04/26 08:34:24;;;;;;;21.50;2.60;;;12.20;88.70;;;;;;5128910;27;20053;-67
2022/04/26 08:36:50;;;;;;;8.60;2.10;;;12.20;88.70;;;;;;5128052;27;20035;-67
2022/04/26 08:39:16;;;;;;;9.98;2.33;;;12.30;88.10;;;;;;5129111;27;20083;-67
2022/04/26 08:41:42;;;;;;;9.27;2.47;;;12.30;87.40;;;;;;5109746;27;20019;-67
2022/04/26 08:44:11;;;;;;;6.10;2.10;;;12.40;87.70;;;;;;5127739;27;20470;-67
2022/04/26 08:52:07;;;;;;;3.17;1.77;;;12.50;88.90;;;;;;5128307;27;20107;-67
2022/04/26 08:54:34;;;;;;;5.03;2.22;;;12.50;88.60;;;;;;5126251;27;20096;-67
2022/04/26 08:57:00;;;;;;;3.85;1.55;;;12.50;89.00;;;;;;5127031;27;20027;-67
2022/04/26 08:59:27;;;;;;;7.18;1.90;;;12.60;88.70;;;;;;5127836;27;20470;-67
2022/04/26 09:02:15;;;;;;;9.18;1.75;;;12.60;89.10;;;;;;5127670;27;20179;-67
2022/04/26 09:04:42;;;;;;;8.80;2.28;;;12.70;88.70;;;;;;5126842;27;20041;-67
2022/04/26 09:07:12;;;;;;;4.80;1.73;;;12.70;88.50;;;;;;5128678;27;20033;-67
2022/04/26 09:09:39;;;;;;;6.43;2.22;;;12.70;88.20;;;;;;5128917;27;20073;-66
2022/04/26 09:12:10;;;;;;;5.15;2.05;;;12.80;88.40;;;;;;5128757;27;20023;-68
2022/04/26 09:14:47;;;;;;;7.70;2.15;;;12.80;88.00;;;;;;5128714;27;20179;-68
2022/04/26 09:17:16;;;;;;;3.40;1.70;;;12.90;85.90;;;;;;5128072;27;20115;-68
2022/04/26 09:19:53;;;;;;;3.15;1.73;;;12.90;85.00;;;;;;5126537;27;20394;-65
2022/04/26 09:22:21;;;;;;;6.57;2.05;;;12.90;84.30;;;;;;5128232;27;20031;-67
2022/04/26 09:24:54;;;;;;;7.55;2.38;;;13.00;83.80;;;;;;5126840;27;20034;-68
2022/04/26 09:27:20;;;;;;;3.03;1.90;;;13.00;83.90;;;;;;5124410;27;20035;-70
2022/04/26 09:29:47;;;;;;;4.03;2.03;;;13.10;84.50;;;;;;5121991;27;20160;-70
2022/04/26 09:32:13;;;;;;;6.22;2.10;;;13.10;84.50;;;;;;5126131;27;20027;-69
2022/04/26 09:34:38;;;;;;;5.97;2.50;;;13.10;84.60;;;;;;5125631;27;20090;-69
2022/04/26 09:37:05;;;;;;;7.85;2.88;;;13.20;84.70;;;;;;5125788;27;20035;-71
2022/04/26 09:39:31;;;;;;;5.50;2.00;;;13.20;84.60;;;;;;5125441;27;20731;-72
2022/04/26 09:41:57;;;;;;;6.07;2.17;;;13.30;85.50;;;;;;5127625;27;20023;-70
2022/04/26 09:44:33;;;;;;;7.25;2.28;;;13.40;84.00;;;;;;5122460;27;20034;-69
2022/04/26 09:46:59;;;;;;;9.55;2.95;;;13.40;83.50;;;;;;5127623;27;20050;-72
2022/04/26 09:49:26;;;;;;;9.93;2.33;;;13.50;84.40;;;;;;5130740;27;20027;-68
2022/04/26 09:52:01;;;;;;;9.55;2.40;;;13.50;84.10;;;;;;5130774;27;20066;-68
2022/04/26 09:54:27;;;;;;;10.05;2.55;;;13.60;83.30;;;;;;5129290;27;20057;-68
2022/04/26 10:00:19;;;;;;;10.70;2.33;;;13.70;83.90;;;;;;5160977;27;20332;-69
2022/04/26 10:02:57;;;;;;;2.90;1.60;;;13.50;84.40;;;;;;5149167;27;20043;-67
2022/04/26 10:05:26;;;;;;;6.68;2.40;;;13.50;84.60;;;;;;5149848;27;20038;-68
2022/04/26 10:07:53;;;;;;;7.05;2.60;;;13.60;84.40;;;;;;5148954;27;20054;-68
2022/04/26 10:10:20;;;;;;;3.92;2.30;;;13.60;84.00;;;;;;5149744;27;20039;-67
2022/04/26 10:13:31;;;;;;;6.88;2.13;;;13.70;83.40;;;;;;5150082;27;20402;-68
2022/04/26 10:15:34;;;;;;;6.45;2.42;;;13.70;83.10;;;;;;5145987;27;20043;-68
2022/04/26 10:18:00;;;;;;;6.10;2.38;;;13.80;83.70;;;;;;5145870;27;20027;-69
2022/04/26 10:20:41;;;;;;;2.03;1.48;;;13.80;83.30;;;;;;5148207;27;20769;-68
2022/04/26 10:23:10;;;;;;;8.98;2.20;;;13.90;83.90;;;;;;5149977;27;20147;-68
2022/04/26 10:25:36;;;;;;;5.07;2.20;;;14.00;82.80;;;;;;5148555;27;20474;-69
2022/04/26 10:28:24;;;;;;;6.97;2.30;;;14.00;82.80;;;;;;5147790;27;20092;-66
2022/04/26 10:30:53;;;;;;;7.15;2.42;;;14.10;82.80;;;;;;5136202;27;20056;-70
2022/04/26 10:33:36;;;;;;;5.40;2.10;;;14.10;81.00;;;;;;5148657;27;20026;-69
2022/04/26 10:36:20;;;;;;;8.60;2.33;;;14.10;81.10;;;;;;5147640;27;20037;-68
2022/04/26 10:39:05;;;;;;;5.28;2.38;;;14.20;80.50;;;;;;5136187;27;20083;-68
2022/04/26 10:41:45;;;;;;;4.30;2.22;;;14.20;80.20;;;;;;5148661;27;20313;-68
2022/04/26 10:44:15;;;;;;;8.73;2.30;;;14.20;79.50;;;;;;5146614;27;20496;-68
2022/04/26 10:46:41;;;;;;;7.13;2.15;;;14.30;81.10;;;;;;5135630;27;20444;-68
2022/04/26 10:49:25;;;;;;;8.52;2.88;;;14.40;81.30;;;;;;5141924;27;20090;-68
2022/04/26 10:51:51;;;;;;;8.32;2.25;;;14.40;80.50;;;;;;5146810;27;20925;-68
2022/04/26 10:54:56;;;;;;;9.32;2.30;;;14.40;80.90;;;;;;5148066;27;20106;-68
2022/04/26 10:57:23;;;;;;;6.22;2.33;;;14.40;80.60;;;;;;5148144;27;20478;-67
2022/04/26 10:59:54;;;;;;;5.40;2.05;;;14.40;79.90;;;;;;5148642;27;20051;-68
2022/04/26 11:02:21;;;;;;;5.05;2.13;;;14.50;79.70;;;;;;5144182;27;20042;-69
2022/04/26 11:04:56;;;;;;;9.07;2.50;;;14.50;78.90;;;;;;5145740;27;20452;-69
2022/04/26 11:07:28;;;;;;;4.15;2.13;;;14.60;78.30;;;;;;5145758;27;20489;-68
2022/04/26 11:09:56;;;;;;;4.75;2.35;;;14.60;78.50;;;;;;5142903;27;20023;-69
2022/04/26 11:12:30;;;;;;;5.32;2.28;;;14.60;78.80;;;;;;5133620;27;20085;-69
2022/04/26 11:15:05;;;;;;;4.00;2.20;;;14.70;77.60;;;;;;5132119;27;20027;-75
2022/04/26 11:17:31;;;;;;;5.03;2.40;;;14.70;78.50;;;;;;5133817;27;20149;-68
2022/04/26 11:19:59;;;;;;;7.05;2.25;;;14.80;78.90;;;;;;5124665;27;20123;-68
2022/04/26 11:22:33;;;;;;;4.15;2.30;;;14.80;78.90;;;;;;5130491;27;20027;-67
2022/04/26 11:28:11;;;;;;;8.75;2.90;;;14.90;78.70;;;;;;5121343;27;20015;-68
2022/04/26 11:30:44;;;;;;;4.88;2.22;;;14.90;78.40;;;;;;5133953;27;20107;-68
2022/04/26 11:33:24;;;;;;;6.53;2.35;;;14.90;78.80;;;;;;5134017;27;20035;-68
2022/04/26 11:35:57;;;;;;;5.60;2.17;;;15.00;78.10;;;;;;5134499;27;20688;-68
2022/04/26 11:38:27;;;;;;;9.90;2.92;;;15.00;77.60;;;;;;5133350;27;20023;-68
2022/04/26 11:40:55;;;;;;;4.10;2.30;;;15.00;77.40;;;;;;5132359;27;20039;-68
2022/04/26 11:43:31;;;;;;;4.30;1.77;;;15.10;78.20;;;;;;5129474;27;20086;-68
2022/04/26 11:45:57;;;;;;;5.63;2.03;;;15.10;78.10;;;;;;5131946;27;20051;-69
2022/04/26 11:48:32;;;;;;;5.45;1.77;;;15.10;76.80;;;;;;5127986;27;20027;-69
2022/04/26 11:50:59;;;;;;;7.32;2.28;;;15.10;77.10;;;;;;5133530;27;20091;-68
2022/04/26 11:53:30;;;;;;;3.75;1.83;;;15.20;77.50;;;;;;5133373;27;20047;-68
2022/04/26 11:55:58;;;;;;;5.22;2.00;;;15.20;77.00;;;;;;5133614;27;20039;-68
2022/04/26 11:58:29;;;;;;;6.53;2.35;;;15.20;78.50;;;;;;5123441;27;20054;-68
2022/04/26 12:01:16;;;;;;;9.65;2.45;;;15.20;76.90;;;;;;5131986;27;20380;-68
2022/04/26 12:03:49;;;;;;;7.63;2.38;;;15.30;77.10;;;;;;5133795;27;20027;-68
2022/04/26 12:06:17;;;;;;;4.68;2.10;;;15.30;76.70;;;;;;5133233;27;20053;-68
2022/04/26 12:08:48;;;;;;;6.85;2.05;;;15.30;76.00;;;;;;5132456;27;20523;-70
2022/04/26 12:11:24;;;;;;;6.60;2.20;;;15.30;76.00;;;;;;5132969;27;20102;-66
2022/04/26 12:14:08;;;;;;;9.20;2.25;;;15.40;76.00;;;;;;5120472;27;20031;-66
2022/04/26 12:16:54;;;;;;;;;;;15.40;75.30;;;;;;5133919;27;20019;-66
2022/04/26 12:19:36;;;;;;;9.60;2.30;;;15.40;76.40;;;;;;5132212;27;19919;-66
2022/04/26 12:22:03;;;;;;;7.28;2.00;;;15.40;76.10;;;;;;5130942;27;20023;-65
2022/04/26 12:24:30;;;;;;;8.52;2.20;;;15.50;76.80;;;;;;5130215;27;20023;-67
2022/04/26 12:27:02;;;;;;;12.77;2.45;;;15.50;76.00;;;;;;5129255;27;20039;-67
2022/04/26 12:29:38;;;;;;;4.35;2.30;;;15.60;74.40;;;;;;5130196;27;20116;-68
2022/04/26 12:32:06;;;;;;;3.50;2.45;;;15.60;75.90;;;;;;5128317;27;20110;-68
2022/04/26 12:34:32;;;;;;;5.82;2.08;;;15.70;76.50;;;;;;5127686;27;20196;-68
2022/04/26 12:37:00;;;;;;;7.00;2.28;;;15.70;75.30;;;;;;5128585;27;20118;-68
2022/04/26 12:39:40;;;;;;;6.35;2.00;;;15.70;75.00;;;;;;5128246;27;20436;-68
2022/04/26 12:42:07;;;;;;;4.70;2.25;;;15.70;75.60;;;;;;5127500;27;20035;-68
2022/04/26 12:44:34;;;;;;;9.65;2.63;;;15.80;75.60;;;;;;5126839;27;20427;-67
2022/04/26 12:52:50;;;;;;;8.02;2.53;;;15.80;75.10;;;;;;5127989;27;20102;-69
2022/04/26 12:55:31;;;;;;;7.03;2.60;;;15.90;75.70;;;;;;5127794;27;20474;-71
2022/04/26 12:57:59;;;;;;;6.88;2.25;;;15.90;75.70;;;;;;5126854;27;20031;-69
2022/04/26 13:00:26;;;;;;;7.78;2.55;;;15.90;75.60;;;;;;5128071;27;20124;-70
2022/04/26 13:03:12;;;;;;;4.70;2.03;;;16.00;73.40;;;;;;5127290;27;20023;-70
2022/04/26 13:05:46;;;;;;;5.32;2.50;;;16.10;74.30;;;;;;5127861;27;20030;-70
2022/04/26 13:08:17;;;;;;;6.13;2.60;;;16.10;74.20;;;;;;5127469;27;20595;-70
2022/04/26 13:10:43;;;;;;;6.70;1.90;;;16.20;76.40;;;;;;5127117;27;20043;-71
2022/04/26 13:13:10;;;;;;;7.65;2.05;;;16.20;77.70;;;;;;5127791;27;20478;-70
2022/04/26 13:15:36;;;;;;;4.72;1.70;;;16.30;78.20;;;;;;5127686;27;20023;-69
2022/04/26 13:18:03;;;;;;;4.03;1.80;;;16.40;77.60;;;;;;5128399;27;20386;-70
2022/04/26 13:20:30;;;;;;;10.07;2.40;;;16.40;77.70;;;;;;5126408;27;20060;-70
2022/04/26 13:22:56;;;;;;;6.00;2.45;;;16.50;78.20;;;;;;5127021;27;20474;-70
2022/04/26 13:25:21;;;;;;;4.90;1.83;;;16.60;75.60;;;;;;5127040;27;20107;-69
2022/04/26 13:27:48;;;;;;;6.30;2.10;;;16.60;75.40;;;;;;5127378;27;20015;-69
2022/04/26 13:30:15;;;;;;;6.93;2.20;;;16.70;72.60;;;;;;5126935;27;20068;-69
2022/04/26 13:32:42;;;;;;;5.45;2.33;;;16.70;71.90;;;;;;5126908;27;20107;-69
2022/04/26 13:35:08;;;;;;;5.53;2.10;;;16.80;75.00;;;;;;5126566;27;20496;-70
2022/04/26 13:37:34;;;;;;;2.67;1.48;;;16.90;75.20;;;;;;5127566;27;20034;-69
2022/04/26 13:40:02;;;;;;;8.98;2.28;;;17.00;74.30;;;;;;5126418;27;20043;-70
2022/04/26 13:42:30;;;;;;;9.13;1.95;;;17.00;73.80;;;;;;5126868;27;20080;-71
2022/04/26 13:44:58;;;;;;;3.28;2.30;;;17.00;74.00;;;;;;5125240;27;20096;-70
2022/04/26 13:47:24;;;;;;;6.53;2.53;;;17.00;74.60;;;;;;5127501;27;20055;-70
2022/04/26 13:49:53;;;;;;;7.53;3.13;;;17.00;74.00;;;;;;5126888;27;20091;-69
2022/04/26 13:52:20;;;;;;;2.45;1.60;;;17.00;74.70;;;;;;5123229;27;20023;-73
2022/04/26 13:54:46;;;;;;;4.95;2.47;;;17.10;78.30;;;;;;5122221;27;20084;-74
2022/04/26 13:57:13;;;;;;;5.78;2.15;;;17.10;75.90;;;;;;5124508;27;20363;-73
2022/04/26 13:59:39;;;;;;;5.88;1.90;;;17.20;76.60;;;;;;5127368;27;20144;-72
2022/04/26 14:02:06;;;;;;;3.85;1.80;;;17.30;78.30;;;;;;5128352;27;20047;-72
2022/04/26 14:04:33;;;;;;;8.32;2.03;;;17.30;77.70;;;;;;5128190;27;20478;-72
2022/04/26 14:06:59;;;;;;;4.15;1.92;;;17.30;76.60;;;;;;5127233;27;20487;-72
2022/04/26 14:09:25;;;;;;;8.73;1.70;;;17.40;76.30;;;;;;5128171;27;20038;-72
2022/04/26 14:11:53;;;;;;;7.25;2.22;;;17.40;76.40;;;;;;5126486;27;20031;-72
2022/04/26 14:22:35;;;;;;;9.73;2.13;;;17.20;75.20;;;;;;5125405;28;20034;-69
2022/04/26 14:25:03;;;;;;;6.97;2.20;;;17.20;76.40;;;;;;5126798;27;20059;-70
2022/04/26 14:27:30;;;;;;;14.57;2.17;;;17.20;75.80;;;;;;5126055;27;20058;-70
2022/04/26 14:29:56;;;;;;;3.45;1.83;;;17.20;75.30;;;;;;5126418;27;20526;-71
2022/04/26 14:32:22;;;;;;;4.68;1.98;;;17.20;75.80;;;;;;5127025;27;20027;-67
2022/04/26 14:34:48;;;;;;;9.20;2.28;;;17.10;75.30;;;;;;5125539;27;20486;-68
2022/04/26 14:37:22;;;;;;;8.35;2.05;;;17.10;74.70;;;;;;5127363;27;20084;-71
2022/04/26 14:39:49;;;;;;;7.45;2.40;;;17.10;74.50;;;;;;5128443;28;20088;-71
2022/04/26 14:42:15;;;;;;;7.65;2.15;;;17.00;74.10;;;;;;5129957;27;20467;-71
2022/04/26 14:44:41;;;;;;;5.70;2.28;;;17.10;75.40;;;;;;5126144;27;20042;-70
2022/04/26 14:47:07;;;;;;;4.75;2.10;;;17.00;75.70;;;;;;5128235;27;20031;-65
2022/04/26 14:49:34;;;;;;;4.43;1.80;;;17.10;74.90;;;;;;5129879;27;20043;-68
2022/04/26 14:52:00;;;;;;;3.58;2.05;;;17.10;75.00;;;;;;5135565;27;20079;-71
2022/04/26 14:54:26;;;;;;;5.57;2.00;;;17.10;75.40;;;;;;5127895;27;20482;-71
2022/04/26 14:56:55;;;;;;;9.00;2.05;;;17.10;77.10;;;;;;5127129;27;20095;-69
2022/04/26 14:59:28;;;;;;;4.97;2.20;;;17.20;77.20;;;;;;5121686;27;20048;-70
2022/04/26 15:01:54;;;;;;;5.97;1.80;;;17.30;76.20;;;;;;5111831;28;20458;-70
2022/04/26 15:04:21;;;;;;;10.50;2.45;;;17.30;75.40;;;;;;5128434;27;20243;-70
2022/04/26 15:06:48;;;;;;;4.60;1.83;;;17.30;74.40;;;;;;5133905;27;20019;-69
2022/04/26 15:17:29;;;;;;;9.40;2.00;;;17.30;72.30;;;;;;5121385;27;20045;-71
2022/04/26 15:19:56;;;;;;;3.17;1.70;;;17.20;73.40;;;;;;5133586;27;20129;-68
2022/04/26 15:22:23;;;;;;;8.85;2.35;;;17.20;73.10;;;;;;5134083;27;20027;-68
2022/04/26 15:24:50;;;;;;;5.47;1.80;;;17.20;73.70;;;;;;5127854;27;20028;-68
2022/04/26 15:27:16;;;;;;;6.47;2.00;;;17.20;73.10;;;;;;5128927;27;20037;-68
2022/04/26 15:29:42;;;;;;;3.92;1.83;;;17.10;73.80;;;;;;5128447;27;20019;-68
2022/04/26 15:32:08;;;;;;;9.40;2.22;;;17.10;74.30;;;;;;5129895;27;20034;-67
2022/04/26 15:34:35;;;;;;;7.20;2.00;;;17.10;73.50;;;;;;5129103;27;20027;-67
2022/04/26 15:37:01;;;;;;;5.65;2.10;;;17.10;74.30;;;;;;5130381;27;20027;-68
2022/04/26 15:39:27;;;;;;;10.57;3.28;;;17.10;73.30;;;;;;5127835;27;20126;-70
2022/04/26 15:41:53;;;;;;;4.50;1.95;;;17.10;71.40;;;;;;5127334;27;20134;-69
2022/04/26 15:44:19;;;;;;;3.55;1.98;;;17.10;70.80;;;;;;5125447;27;20037;-70
2022/04/26 15:46:49;;;;;;;5.88;1.83;;;17.10;70.90;;;;;;5127337;27;20027;-70
2022/04/26 15:49:18;;;;;;;2.95;1.75;;;17.00;71.30;;;;;;5125876;27;20050;-70
2022/04/26 15:51:44;;;;;;;6.13;1.88;;;17.10;72.10;;;;;;5126153;27;20428;-70
2022/04/26 15:54:10;;;;;;;7.03;2.03;;;17.00;71.80;;;;;;5127366;27;20107;-70
2022/04/26 15:56:36;;;;;;;4.55;1.90;;;17.00;71.90;;;;;;5132423;27;20018;-71
2022/04/26 15:59:02;;;;;;;6.63;1.80;;;17.00;72.20;;;;;;5132340;27;20071;-67
2022/04/26 16:01:28;;;;;;;6.28;1.77;;;17.00;72.30;;;;;;5120009;27;20065;-68
2022/04/26 16:03:54;;;;;;;6.68;1.85;;;17.00;71.70;;;;;;5132861;27;20062;-68
2022/04/26 16:06:20;;;;;;;4.35;1.73;;;17.00;72.00;;;;;;5132463;27;20202;-66
2022/04/26 16:08:46;;;;;;;5.90;2.10;;;17.00;72.20;;;;;;5133152;27;20459;-66
2022/04/26 16:22:10;;;;;;;7.85;1.95;;;16.80;73.80;;;;;;5133332;27;20039;-68
2022/04/26 16:24:38;;;;;;;5.38;2.15;;;16.80;74.40;;;;;;5127510;27;20428;-67
2022/04/26 16:27:09;;;;;;;4.75;1.50;;;16.80;74.20;;;;;;5124587;27;20098;-68
2022/04/26 16:29:35;;;;;;;4.68;1.80;;;16.70;75.00;;;;;;5132152;27;20080;-68
2022/04/26 16:32:01;;;;;;;2.30;1.45;;;16.70;74.50;;;;;;5132682;27;20678;-68
2022/04/26 16:34:27;;;;;;;6.30;2.13;;;16.60;73.50;;;;;;5132405;27;20084;-69
2022/04/26 16:36:54;;;;;;;5.60;2.10;;;16.70;73.60;;;;;;5132186;27;20039;-68
2022/04/26 16:39:19;;;;;;;6.15;2.10;;;16.60;74.10;;;;;;5131683;27;20035;-67
2022/04/26 16:41:45;;;;;;;3.45;1.60;;;16.60;73.40;;;;;;5131554;27;20370;-68
2022/04/26 16:44:11;;;;;;;5.13;1.90;;;16.60;72.70;;;;;;5132175;27;20042;-68
2022/04/26 16:46:37;;;;;;;3.20;2.00;;;16.50;72.10;;;;;;5131957;27;20164;-68
2022/04/26 16:49:03;;;;;;;5.80;2.10;;;16.60;71.90;;;;;;5131064;27;20031;-69
2022/04/26 16:51:30;;;;;;;6.95;2.00;;;16.50;71.20;;;;;;5127358;27;20041;-68
2022/04/26 16:53:59;;;;;;;6.10;2.05;;;16.50;71.20;;;;;;5131488;27;20027;-68
2022/04/26 16:56:25;;;;;;;4.50;1.75;;;16.60;71.00;;;;;;5131175;27;20050;-68
2022/04/26 16:58:50;;;;;;;6.13;2.28;;;16.50;71.00;;;;;;5131509;27;20139;-70
2022/04/26 17:01:16;;;;;;;4.82;1.70;;;16.50;71.20;;;;;;5129581;27;20038;-72
2022/04/26 17:03:42;;;;;;;7.35;2.28;;;16.50;71.80;;;;;;5131603;27;20027;-72
2022/04/26 17:06:07;;;;;;;9.02;2.17;;;16.60;71.70;;;;;;5132294;27;20490;-72
2022/04/26 17:08:33;;;;;;;11.55;2.03;;;16.70;72.30;;;;;;5130342;27;20461;-68
2022/04/26 17:13:46;;;;;;;5.88;2.63;;;16.70;72.00;;;;;;5131272;27;20027;-70
2022/04/26 17:16:13;;;;;;;4.20;1.52;;;16.80;73.00;;;;;;5130966;27;20038;-69
2022/04/26 17:18:41;;;;;;;3.83;2.03;;;16.90;75.70;;;;;;5131753;27;20031;-69
2022/04/26 17:21:09;;;;;;;6.28;2.03;;;16.90;75.10;;;;;;5128554;27;20076;-69
2022/04/26 17:23:35;;;;;;;4.78;2.15;;;17.00;72.90;;;;;;5127927;27;20099;-68